sensor_id;sensor_type;location;lat;lon;timestamp;pressure;altitude;pressure_sealevel;temperature;humidity
70971;BME280;58632;51.718;19.446;2023-06-22T00:00:58;99721.32;;;21.56;100.00
70971;BME280;58632;51.718;19.446;2023-06-22T00:03:31;99717.27;;;21.56;100.00
70971;BME280;58632;51.718;19.446;2023-06-22T00:05:59;99723.73;;;21.49;100.00
70971;BME280;58632;51.718;19.446;2023-06-22T00:08:25;99732.23;;;21.44;100.00
70971;BME280;58632;51.718;19.446;2023-06-22T00:10:51;99736.67;;;21.41;100.00
70971;BME280;58632;51.718;19.446;2023-06-22T00:13:16;99737.27;;;21.33;100.00
70971;BME280;58632;51.718;19.446;2023-06-22T00:15:43;99738.46;;;21.28;100.00
70971;BME280;58632;51.718;19.446;2023-06-22T00:18:10;99735.27;;;21.20;100.00
70971;BME280;58632;51.718;19.446;2023-06-22T00:20:36;99729.14;;;21.16;100.00
70971;BME280;58632;51.718;19.446;2023-06-22T00:23:03;99728.66;;;21.15;100.00
70971;BME280;58632;51.718;19.446;2023-06-22T00:25:36;99726.60;;;21.14;100.00
70971;BME280;58632;51.718;19.446;2023-06-22T00:28:03;99722.94;;;21.15;100.00
70971;BME280;58632;51.718;19.446;2023-06-22T00:30:30;99720.73;;;21.16;100.00
70971;BME280;58632;51.718;19.446;2023-06-22T00:32:56;99718.89;;;21.15;100.00
70971;BME280;58632;51.718;19.446;2023-06-22T00:35:22;99720.39;;;21.13;100.00
70971;BME280;58632;51.718;19.446;2023-06-22T00:37:47;99724.84;;;21.09;100.00
70971;BME280;58632;51.718;19.446;2023-06-22T00:40:13;99730.48;;;21.06;100.00
70971;BME280;58632;51.718;19.446;2023-06-22T00:42:39;99727.14;;;21.04;100.00
70971;BME280;58632;51.718;19.446;2023-06-22T00:45:06;99724.49;;;20.98;100.00
70971;BME280;58632;51.718;19.446;2023-06-22T00:47:34;99724.80;;;20.94;100.00
70971;BME280;58632;51.718;19.446;2023-06-22T00:50:00;99729.33;;;20.90;100.00
70971;BME280;58632;51.718;19.446;2023-06-22T00:52:28;99735.21;;;20.89;100.00
70971;BME280;58632;51.718;19.446;2023-06-22T00:54:56;99733.69;;;20.85;100.00
70971;BME280;58632;51.718;19.446;2023-06-22T00:57:22;99737.42;;;20.83;100.00
70971;BME280;58632;51.718;19.446;2023-06-22T00:59:54;99733.34;;;20.81;100.00
70971;BME280;58632;51.718;19.446;2023-06-22T01:02:20;99729.88;;;20.84;100.00
70971;BME280;58632;51.718;19.446;2023-06-22T01:04:45;99735.35;;;20.84;100.00
70971;BME280;58632;51.718;19.446;2023-06-22T01:12:51;99730.42;;;20.86;100.00
70971;BME280;58632;51.718;19.446;2023-06-22T01:17:52;99734.62;;;20.80;100.00
70971;BME280;58632;51.718;19.446;2023-06-22T01:20:18;99740.34;;;20.78;100.00
70971;BME280;58632;51.718;19.446;2023-06-22T01:23:11;99736.29;;;20.77;100.00
70971;BME280;58632;51.718;19.446;2023-06-22T01:25:56;99736.27;;;20.73;100.00
70971;BME280;58632;51.718;19.446;2023-06-22T01:30:57;99732.15;;;20.58;100.00
70971;BME280;58632;51.718;19.446;2023-06-22T01:33:33;99735.26;;;20.57;100.00
70971;BME280;58632;51.718;19.446;2023-06-22T01:36:01;99738.30;;;20.53;100.00
70971;BME280;58632;51.718;19.446;2023-06-22T01:38:29;99740.98;;;20.47;100.00
70971;BME280;58632;51.718;19.446;2023-06-22T01:40:57;99742.85;;;20.41;100.00
70971;BME280;58632;51.718;19.446;2023-06-22T01:43:25;99737.44;;;20.39;100.00
70971;BME280;58632;51.718;19.446;2023-06-22T01:45:51;99739.98;;;20.36;100.00
70971;BME280;58632;51.718;19.446;2023-06-22T01:48:18;99742.81;;;20.35;100.00
70971;BME280;58632;51.718;19.446;2023-06-22T01:50:44;99746.95;;;20.33;100.00
70971;BME280;58632;51.718;19.446;2023-06-22T01:53:10;99747.95;;;20.30;100.00
70971;BME280;58632;51.718;19.446;2023-06-22T01:55:35;99752.79;;;20.27;100.00
70971;BME280;58632;51.718;19.446;2023-06-22T01:58:01;99754.36;;;20.23;100.00
70971;BME280;58632;51.718;19.446;2023-06-22T02:00:28;99757.20;;;20.20;100.00
70971;BME280;58632;51.718;19.446;2023-06-22T02:03:00;99755.51;;;20.17;100.00
70971;BME280;58632;51.718;19.446;2023-06-22T02:05:34;99758.92;;;20.16;100.00
70971;BME280;58632;51.718;19.446;2023-06-22T02:08:11;99763.83;;;20.14;100.00
70971;BME280;58632;51.718;19.446;2023-06-22T02:10:43;99766.77;;;20.13;100.00
70971;BME280;58632;51.718;19.446;2023-06-22T02:13:10;99765.16;;;20.12;100.00
70971;BME280;58632;51.718;19.446;2023-06-22T02:15:36;99770.09;;;20.12;100.00
70971;BME280;58632;51.718;19.446;2023-06-22T02:18:02;99772.63;;;20.11;100.00
70971;BME280;58632;51.718;19.446;2023-06-22T02:20:28;99774.39;;;20.13;100.00
70971;BME280;58632;51.718;19.446;2023-06-22T02:22:55;99780.89;;;20.12;100.00
70971;BME280;58632;51.718;19.446;2023-06-22T02:25:21;99782.95;;;20.12;100.00
70971;BME280;58632;51.718;19.446;2023-06-22T02:27:47;99785.96;;;20.10;100.00
70971;BME280;58632;51.718;19.446;2023-06-22T02:30:13;99785.98;;;20.13;100.00
70971;BME280;58632;51.718;19.446;2023-06-22T02:32:41;99785.77;;;20.15;100.00
70971;BME280;58632;51.718;19.446;2023-06-22T02:35:10;99787.27;;;20.14;100.00
70971;BME280;58632;51.718;19.446;2023-06-22T02:37:37;99789.77;;;20.11;100.00
70971;BME280;58632;51.718;19.446;2023-06-22T02:40:10;99794.52;;;20.07;100.00
70971;BME280;58632;51.718;19.446;2023-06-22T02:42:36;99796.17;;;20.05;100.00
70971;BME280;58632;51.718;19.446;2023-06-22T02:45:03;99798.20;;;20.00;100.00
70971;BME280;58632;51.718;19.446;2023-06-22T02:47:28;99804.30;;;19.98;100.00
70971;BME280;58632;51.718;19.446;2023-06-22T02:49:54;99807.95;;;19.97;100.00
70971;BME280;58632;51.718;19.446;2023-06-22T02:52:20;99817.77;;;19.96;100.00
70971;BME280;58632;51.718;19.446;2023-06-22T02:54:45;99813.54;;;19.94;100.00
70971;BME280;58632;51.718;19.446;2023-06-22T02:57:11;99812.98;;;19.93;100.00
70971;BME280;58632;51.718;19.446;2023-06-22T02:59:42;99811.48;;;19.93;100.00
70971;BME280;58632;51.718;19.446;2023-06-22T03:02:08;99811.25;;;19.94;100.00
70971;BME280;58632;51.718;19.446;2023-06-22T03:04:35;99810.98;;;20.00;100.00
70971;BME280;58632;51.718;19.446;2023-06-22T03:07:03;99813.80;;;20.05;100.00
70971;BME280;58632;51.718;19.446;2023-06-22T03:09:29;99810.27;;;20.11;100.00
70971;BME280;58632;51.718;19.446;2023-06-22T03:11:55;99812.70;;;20.18;100.00
70971;BME280;58632;51.718;19.446;2023-06-22T03:14:20;99812.89;;;20.22;100.00
70971;BME280;58632;51.718;19.446;2023-06-22T03:16:46;99815.86;;;20.26;100.00
70971;BME280;58632;51.718;19.446;2023-06-22T03:19:14;99816.90;;;20.28;100.00
70971;BME280;58632;51.718;19.446;2023-06-22T03:21:40;99820.02;;;20.32;100.00
70971;BME280;58632;51.718;19.446;2023-06-22T03:24:08;99822.94;;;20.40;100.00
70971;BME280;58632;51.718;19.446;2023-06-22T03:26:37;99827.27;;;20.47;100.00
70971;BME280;58632;51.718;19.446;2023-06-22T03:29:03;99835.88;;;20.52;100.00
70971;BME280;58632;51.718;19.446;2023-06-22T03:31:31;99836.83;;;20.59;100.00
70971;BME280;58632;51.718;19.446;2023-06-22T03:33:56;99838.54;;;20.65;100.00
70971;BME280;58632;51.718;19.446;2023-06-22T03:36:22;99844.20;;;20.69;100.00
70971;BME280;58632;51.718;19.446;2023-06-22T03:38:51;99838.76;;;20.77;100.00
70971;BME280;58632;51.718;19.446;2023-06-22T03:41:16;99838.48;;;20.87;100.00
70971;BME280;58632;51.718;19.446;2023-06-22T03:43:42;99834.08;;;21.01;100.00
70971;BME280;58632;51.718;19.446;2023-06-22T03:46:08;99834.45;;;21.11;100.00
70971;BME280;58632;51.718;19.446;2023-06-22T03:48:33;99836.95;;;21.21;100.00
70971;BME280;58632;51.718;19.446;2023-06-22T03:51:00;99839.60;;;21.26;100.00
70971;BME280;58632;51.718;19.446;2023-06-22T03:53:25;99839.29;;;21.33;100.00
70971;BME280;58632;51.718;19.446;2023-06-22T03:55:52;99840.20;;;21.40;100.00
70971;BME280;58632;51.718;19.446;2023-06-22T03:58:18;99840.08;;;21.45;100.00
70971;BME280;58632;51.718;19.446;2023-06-22T04:00:51;99846.13;;;21.50;100.00
70971;BME280;58632;51.718;19.446;2023-06-22T04:03:17;99851.33;;;21.65;100.00
70971;BME280;58632;51.718;19.446;2023-06-22T04:05:46;99861.05;;;21.74;100.00
70971;BME280;58632;51.718;19.446;2023-06-22T04:08:13;99864.33;;;21.84;100.00
70971;BME280;58632;51.718;19.446;2023-06-22T04:10:38;99870.15;;;21.90;100.00
70971;BME280;58632;51.718;19.446;2023-06-22T04:13:04;99866.41;;;21.97;100.00
70971;BME280;58632;51.718;19.446;2023-06-22T04:15:29;99862.05;;;22.05;100.00
70971;BME280;58632;51.718;19.446;2023-06-22T04:17:56;99859.49;;;22.13;100.00
70971;BME280;58632;51.718;19.446;2023-06-22T04:20:22;99860.08;;;22.25;100.00
70971;BME280;58632;51.718;19.446;2023-06-22T04:23:07;99862.70;;;22.39;100.00
70971;BME280;58632;51.718;19.446;2023-06-22T04:25:33;99860.84;;;23.07;100.00
70971;BME280;58632;51.718;19.446;2023-06-22T04:27:59;99866.44;;;24.51;100.00
70971;BME280;58632;51.718;19.446;2023-06-22T04:30:32;99868.23;;;25.81;100.00
70971;BME280;58632;51.718;19.446;2023-06-22T04:32:58;99872.61;;;27.08;100.00
70971;BME280;58632;51.718;19.446;2023-06-22T04:35:24;99869.58;;;28.25;100.00
70971;BME280;58632;51.718;19.446;2023-06-22T04:37:50;99875.75;;;29.16;100.00
70971;BME280;58632;51.718;19.446;2023-06-22T04:40:23;99877.34;;;29.89;100.00
70971;BME280;58632;51.718;19.446;2023-06-22T04:42:49;99877.62;;;30.33;95.15
70971;BME280;58632;51.718;19.446;2023-06-22T04:45:18;99884.71;;;30.75;93.93
70971;BME280;58632;51.718;19.446;2023-06-22T04:47:44;99881.26;;;31.43;90.07
70971;BME280;58632;51.718;19.446;2023-06-22T04:50:11;99875.23;;;31.98;81.39
70971;BME280;58632;51.718;19.446;2023-06-22T04:52:37;99872.68;;;32.50;74.37
70971;BME280;58632;51.718;19.446;2023-06-22T04:55:03;99873.95;;;33.00;71.34
70971;BME280;58632;51.718;19.446;2023-06-22T04:57:29;99882.52;;;33.47;64.71
70971;BME280;58632;51.718;19.446;2023-06-22T04:59:59;99882.77;;;33.93;59.07
70971;BME280;58632;51.718;19.446;2023-06-22T05:02:36;99884.61;;;34.18;52.31
70971;BME280;58632;51.718;19.446;2023-06-22T05:05:03;99882.61;;;34.50;53.33
70971;BME280;58632;51.718;19.446;2023-06-22T05:07:34;99886.42;;;34.98;51.60
70971;BME280;58632;51.718;19.446;2023-06-22T05:10:03;99889.67;;;35.29;44.96
70971;BME280;58632;51.718;19.446;2023-06-22T05:12:30;99889.67;;;35.34;46.12
70971;BME280;58632;51.718;19.446;2023-06-22T05:14:56;99882.30;;;35.62;44.47
70971;BME280;58632;51.718;19.446;2023-06-22T05:17:22;99879.30;;;35.89;44.29
70971;BME280;58632;51.718;19.446;2023-06-22T05:19:47;99879.58;;;36.34;43.46
70971;BME280;58632;51.718;19.446;2023-06-22T05:22:16;99884.93;;;36.67;41.38
70971;BME280;58632;51.718;19.446;2023-06-22T05:24:43;99885.79;;;36.79;39.14
70971;BME280;58632;51.718;19.446;2023-06-22T05:27:09;99882.52;;;36.70;38.44
70971;BME280;58632;51.718;19.446;2023-06-22T05:29:36;99883.63;;;36.91;38.50
70971;BME280;58632;51.718;19.446;2023-06-22T05:32:01;99885.48;;;37.08;37.65
70971;BME280;58632;51.718;19.446;2023-06-22T05:34:30;99889.88;;;37.15;36.19
70971;BME280;58632;51.718;19.446;2023-06-22T05:36:56;99892.80;;;37.17;36.78
70971;BME280;58632;51.718;19.446;2023-06-22T05:39:24;99897.46;;;37.11;35.03
70971;BME280;58632;51.718;19.446;2023-06-22T05:41:50;99903.77;;;36.87;34.94
70971;BME280;58632;51.718;19.446;2023-06-22T05:44:15;99903.71;;;36.81;35.04
70971;BME280;58632;51.718;19.446;2023-06-22T05:46:43;99901.85;;;36.77;34.95
70971;BME280;58632;51.718;19.446;2023-06-22T05:49:14;99902.31;;;36.78;35.26
70971;BME280;58632;51.718;19.446;2023-06-22T05:51:40;99905.30;;;36.83;35.18
70971;BME280;58632;51.718;19.446;2023-06-22T05:54:06;99905.93;;;37.04;35.73
70971;BME280;58632;51.718;19.446;2023-06-22T05:56:33;99906.34;;;37.55;35.64
70971;BME280;58632;51.718;19.446;2023-06-22T05:58:59;99905.43;;;37.91;34.51
70971;BME280;58632;51.718;19.446;2023-06-22T06:01:24;99910.36;;;38.04;33.39
70971;BME280;58632;51.718;19.446;2023-06-22T06:03:51;99908.76;;;37.92;33.64
70971;BME280;58632;51.718;19.446;2023-06-22T06:06:18;99906.86;;;37.96;34.44
70971;BME280;58632;51.718;19.446;2023-06-22T06:08:46;99909.33;;;38.13;33.05
70971;BME280;58632;51.718;19.446;2023-06-22T06:11:14;99905.59;;;38.00;32.34
70971;BME280;58632;51.718;19.446;2023-06-22T06:13:40;99904.10;;;37.80;32.23
70971;BME280;58632;51.718;19.446;2023-06-22T06:16:05;99902.89;;;37.79;32.05
70971;BME280;58632;51.718;19.446;2023-06-22T06:18:31;99899.46;;;37.79;32.37
70971;BME280;58632;51.718;19.446;2023-06-22T06:20:59;99895.79;;;37.88;32.52
70971;BME280;58632;51.718;19.446;2023-06-22T06:23:25;99891.48;;;37.80;32.08
70971;BME280;58632;51.718;19.446;2023-06-22T06:25:51;99892.08;;;37.62;31.88
70971;BME280;58632;51.718;19.446;2023-06-22T06:28:16;99892.46;;;37.54;31.20
70971;BME280;58632;51.718;19.446;2023-06-22T06:30:42;99902.89;;;37.42;31.47
70971;BME280;58632;51.718;19.446;2023-06-22T06:33:07;99909.12;;;37.30;31.73
70971;BME280;58632;51.718;19.446;2023-06-22T06:35:34;99908.75;;;36.96;31.83
70971;BME280;58632;51.718;19.446;2023-06-22T06:38:00;99909.23;;;36.65;32.40
70971;BME280;58632;51.718;19.446;2023-06-22T06:40:25;99910.34;;;36.29;32.30
70971;BME280;58632;51.718;19.446;2023-06-22T06:42:51;99912.33;;;35.85;33.34
70971;BME280;58632;51.718;19.446;2023-06-22T06:45:20;99911.25;;;35.52;33.82
70971;BME280;58632;51.718;19.446;2023-06-22T06:47:50;99910.98;;;35.14;34.58
70971;BME280;58632;51.718;19.446;2023-06-22T06:50:16;99913.03;;;34.88;34.71
70971;BME280;58632;51.718;19.446;2023-06-22T06:52:42;99911.33;;;34.58;34.38
70971;BME280;58632;51.718;19.446;2023-06-22T06:55:09;99916.59;;;34.03;34.60
70971;BME280;58632;51.718;19.446;2023-06-22T06:57:38;99907.44;;;33.74;34.55
70971;BME280;58632;51.718;19.446;2023-06-22T07:00:07;99906.27;;;33.63;34.50
70971;BME280;58632;51.718;19.446;2023-06-22T07:02:43;99899.60;;;33.41;34.24
70971;BME280;58632;51.718;19.446;2023-06-22T07:05:10;99904.84;;;33.29;34.17
70971;BME280;58632;51.718;19.446;2023-06-22T07:07:35;99908.39;;;33.15;35.07
70971;BME280;58632;51.718;19.446;2023-06-22T07:10:01;99904.63;;;32.99;35.14
70971;BME280;58632;51.718;19.446;2023-06-22T07:12:28;99903.90;;;32.88;34.72
70971;BME280;58632;51.718;19.446;2023-06-22T07:14:53;99905.36;;;32.79;34.30
70971;BME280;58632;51.718;19.446;2023-06-22T07:17:19;99899.44;;;32.64;34.56
70971;BME280;58632;51.718;19.446;2023-06-22T07:19:45;99898.55;;;32.48;35.18
70971;BME280;58632;51.718;19.446;2023-06-22T07:22:10;99902.20;;;32.43;35.84
70971;BME280;58632;51.718;19.446;2023-06-22T07:24:36;99898.63;;;32.35;35.74
70971;BME280;58632;51.718;19.446;2023-06-22T07:27:05;99894.33;;;32.30;35.68
70971;BME280;58632;51.718;19.446;2023-06-22T07:29:34;99898.09;;;32.15;34.62
70971;BME280;58632;51.718;19.446;2023-06-22T07:32:00;99899.73;;;31.99;33.58
70971;BME280;58632;51.718;19.446;2023-06-22T07:34:29;99892.67;;;31.88;33.84
70971;BME280;58632;51.718;19.446;2023-06-22T07:36:56;99889.67;;;31.93;34.36
70971;BME280;58632;51.718;19.446;2023-06-22T07:39:22;99884.87;;;32.00;35.49
70971;BME280;58632;51.718;19.446;2023-06-22T07:41:51;99882.13;;;32.18;36.03
70971;BME280;58632;51.718;19.446;2023-06-22T07:44:16;99883.45;;;32.38;35.72
70971;BME280;58632;51.718;19.446;2023-06-22T07:46:42;99884.91;;;32.47;35.00
70971;BME280;58632;51.718;19.446;2023-06-22T07:49:08;99885.97;;;32.55;33.68
70971;BME280;58632;51.718;19.446;2023-06-22T07:51:34;99883.48;;;32.53;33.82
70971;BME280;58632;51.718;19.446;2023-06-22T07:53:59;99891.38;;;32.32;33.80
70971;BME280;58632;51.718;19.446;2023-06-22T07:56:25;99887.27;;;32.28;34.00
70971;BME280;58632;51.718;19.446;2023-06-22T07:58:50;99890.66;;;32.26;34.20
70971;BME280;58632;51.718;19.446;2023-06-22T08:01:16;99896.10;;;32.28;33.87
70971;BME280;58632;51.718;19.446;2023-06-22T08:03:42;99895.95;;;32.37;33.10
70971;BME280;58632;51.718;19.446;2023-06-22T08:06:09;99904.23;;;32.42;32.96
70971;BME280;58632;51.718;19.446;2023-06-22T08:08:35;99902.20;;;32.35;33.76
70971;BME280;58632;51.718;19.446;2023-06-22T08:11:01;99908.00;;;32.37;33.87
70971;BME280;58632;51.718;19.446;2023-06-22T08:13:30;99904.17;;;32.43;33.94
70971;BME280;58632;51.718;19.446;2023-06-22T08:15:55;99904.17;;;32.52;34.55
70971;BME280;58632;51.718;19.446;2023-06-22T08:18:21;99903.29;;;32.58;34.54
70971;BME280;58632;51.718;19.446;2023-06-22T08:20:49;99901.67;;;32.63;34.25
70971;BME280;58632;51.718;19.446;2023-06-22T08:23:15;99905.80;;;32.65;33.96
70971;BME280;58632;51.718;19.446;2023-06-22T08:25:40;99909.19;;;32.57;33.44
70971;BME280;58632;51.718;19.446;2023-06-22T08:28:06;99913.40;;;32.43;34.52
70971;BME280;58632;51.718;19.446;2023-06-22T08:30:32;99913.91;;;32.37;33.90
70971;BME280;58632;51.718;19.446;2023-06-22T08:33:00;99912.84;;;32.38;34.44
70971;BME280;58632;51.718;19.446;2023-06-22T08:35:26;99915.67;;;32.44;34.38
70971;BME280;58632;51.718;19.446;2023-06-22T08:37:54;99913.34;;;32.55;33.99
70971;BME280;58632;51.718;19.446;2023-06-22T08:40:22;99916.80;;;32.54;32.79
70971;BME280;58632;51.718;19.446;2023-06-22T08:42:48;99919.27;;;32.37;32.22
70971;BME280;58632;51.718;19.446;2023-06-22T08:45:14;99929.02;;;32.20;32.11
70971;BME280;58632;51.718;19.446;2023-06-22T08:47:41;99934.77;;;31.94;31.38
70971;BME280;58632;51.718;19.446;2023-06-22T08:50:11;99930.44;;;31.77;33.15
70971;BME280;58632;51.718;19.446;2023-06-22T08:52:40;99932.25;;;31.67;33.06
70971;BME280;58632;51.718;19.446;2023-06-22T08:55:09;99938.63;;;31.61;33.26
70971;BME280;58632;51.718;19.446;2023-06-22T08:57:34;99938.69;;;31.54;32.78
70971;BME280;58632;51.718;19.446;2023-06-22T09:00:04;99933.17;;;31.54;32.74
70971;BME280;58632;51.718;19.446;2023-06-22T09:02:30;99930.45;;;31.61;33.87
70971;BME280;58632;51.718;19.446;2023-06-22T09:04:57;99931.71;;;31.83;34.32
70971;BME280;58632;51.718;19.446;2023-06-22T09:07:23;99927.64;;;31.94;33.42
70971;BME280;58632;51.718;19.446;2023-06-22T09:09:50;99932.36;;;32.02;33.05
70971;BME280;58632;51.718;19.446;2023-06-22T09:12:17;99931.02;;;31.97;32.96
70971;BME280;58632;51.718;19.446;2023-06-22T09:14:45;99930.16;;;31.96;32.61
70971;BME280;58632;51.718;19.446;2023-06-22T09:17:13;99932.90;;;31.90;30.85
70971;BME280;58632;51.718;19.446;2023-06-22T09:19:38;99934.91;;;31.65;31.04
70971;BME280;58632;51.718;19.446;2023-06-22T09:22:07;99932.42;;;31.48;31.06
70971;BME280;58632;51.718;19.446;2023-06-22T09:24:33;99932.20;;;31.43;31.22
70971;BME280;58632;51.718;19.446;2023-06-22T09:26:58;99923.78;;;31.37;30.64
70971;BME280;58632;51.718;19.446;2023-06-22T09:29:24;99919.51;;;31.34;30.78
70971;BME280;58632;51.718;19.446;2023-06-22T09:31:50;99917.94;;;31.33;29.22
70971;BME280;58632;51.718;19.446;2023-06-22T09:34:15;99918.39;;;31.25;29.34
70971;BME280;58632;51.718;19.446;2023-06-22T09:36:48;99917.60;;;31.07;29.33
70971;BME280;58632;51.718;19.446;2023-06-22T09:39:14;99914.29;;;30.96;29.35
70971;BME280;58632;51.718;19.446;2023-06-22T09:41:39;99914.30;;;30.87;28.61
70971;BME280;58632;51.718;19.446;2023-06-22T09:44:05;99912.07;;;30.74;29.66
70971;BME280;58632;51.718;19.446;2023-06-22T09:46:30;99908.41;;;30.67;29.79
70971;BME280;58632;51.718;19.446;2023-06-22T09:48:58;99907.38;;;30.69;29.60
70971;BME280;58632;51.718;19.446;2023-06-22T09:51:24;99904.47;;;30.74;30.14
70971;BME280;58632;51.718;19.446;2023-06-22T09:53:50;99905.61;;;30.84;30.69
70971;BME280;58632;51.718;19.446;2023-06-22T09:56:16;99892.25;;;30.95;30.76
70971;BME280;58632;51.718;19.446;2023-06-22T09:58:43;99894.57;;;31.05;29.94
70971;BME280;58632;51.718;19.446;2023-06-22T10:01:09;99902.39;;;31.11;29.86
70971;BME280;58632;51.718;19.446;2023-06-22T10:03:35;99899.85;;;31.15;30.04
70971;BME280;58632;51.718;19.446;2023-06-22T10:06:01;99902.84;;;31.17;30.19
70971;BME280;58632;51.718;19.446;2023-06-22T10:08:27;99895.75;;;31.23;31.32
70971;BME280;58632;51.718;19.446;2023-06-22T10:10:53;99900.17;;;31.32;31.08
70971;BME280;58632;51.718;19.446;2023-06-22T10:13:18;99898.85;;;31.44;31.45
70971;BME280;58632;51.718;19.446;2023-06-22T10:15:46;99890.03;;;31.57;31.31
70971;BME280;58632;51.718;19.446;2023-06-22T10:18:18;99884.55;;;31.69;31.24
70971;BME280;58632;51.718;19.446;2023-06-22T10:20:44;99886.19;;;31.64;29.78
70971;BME280;58632;51.718;19.446;2023-06-22T10:23:10;99890.07;;;31.56;30.00
70971;BME280;58632;51.718;19.446;2023-06-22T10:25:35;99888.91;;;31.42;30.61
70971;BME280;58632;51.718;19.446;2023-06-22T10:28:01;99888.95;;;31.36;31.31
70971;BME280;58632;51.718;19.446;2023-06-22T10:30:27;99893.19;;;31.36;31.48
70971;BME280;58632;51.718;19.446;2023-06-22T10:32:54;99898.79;;;31.46;30.35
70971;BME280;58632;51.718;19.446;2023-06-22T10:35:19;99891.50;;;31.49;30.50
70971;BME280;58632;51.718;19.446;2023-06-22T10:37:46;99898.39;;;31.56;31.79
70971;BME280;58632;51.718;19.446;2023-06-22T10:40:13;99895.52;;;31.66;32.40
70971;BME280;58632;51.718;19.446;2023-06-22T10:42:43;99890.71;;;31.69;31.44
70971;BME280;58632;51.718;19.446;2023-06-22T10:45:09;99896.63;;;31.60;31.49
70971;BME280;58632;51.718;19.446;2023-06-22T10:47:34;99896.17;;;31.53;30.95
70971;BME280;58632;51.718;19.446;2023-06-22T10:50:01;99890.03;;;31.45;30.90
70971;BME280;58632;51.718;19.446;2023-06-22T10:52:26;99887.66;;;31.43;30.92
70971;BME280;58632;51.718;19.446;2023-06-22T10:54:52;99885.29;;;31.37;30.33
70971;BME280;58632;51.718;19.446;2023-06-22T10:57:18;99883.75;;;31.13;29.82
70971;BME280;58632;51.718;19.446;2023-06-22T10:59:44;99880.69;;;31.07;30.29
70971;BME280;58632;51.718;19.446;2023-06-22T11:02:09;99879.69;;;31.08;31.04
70971;BME280;58632;51.718;19.446;2023-06-22T11:04:35;99881.30;;;31.08;31.12
70971;BME280;58632;51.718;19.446;2023-06-22T11:07:01;99882.59;;;31.03;30.10
70971;BME280;58632;51.718;19.446;2023-06-22T11:09:26;99880.34;;;31.01;30.77
70971;BME280;58632;51.718;19.446;2023-06-22T11:11:52;99874.14;;;31.05;31.23
70971;BME280;58632;51.718;19.446;2023-06-22T11:14:19;99867.34;;;31.10;31.38
70971;BME280;58632;51.718;19.446;2023-06-22T11:16:45;99870.85;;;31.11;30.38
70971;BME280;58632;51.718;19.446;2023-06-22T11:19:11;99862.92;;;31.04;30.39
70971;BME280;58632;51.718;19.446;2023-06-22T11:21:37;99856.78;;;30.98;30.10
70971;BME280;58632;51.718;19.446;2023-06-22T11:24:03;99851.83;;;30.90;30.29
70971;BME280;58632;51.718;19.446;2023-06-22T11:26:31;99858.07;;;30.94;30.60
70971;BME280;58632;51.718;19.446;2023-06-22T11:28:57;99854.19;;;30.90;29.92
70971;BME280;58632;51.718;19.446;2023-06-22T11:31:23;99845.94;;;30.82;30.39
70971;BME280;58632;51.718;19.446;2023-06-22T11:33:49;99845.09;;;30.91;31.54
70971;BME280;58632;51.718;19.446;2023-06-22T11:36:14;99844.81;;;30.96;30.75
70971;BME280;58632;51.718;19.446;2023-06-22T11:38:41;99847.64;;;30.92;30.14
70971;BME280;58632;51.718;19.446;2023-06-22T11:41:08;99848.20;;;30.87;29.82
70971;BME280;58632;51.718;19.446;2023-06-22T11:43:34;99854.58;;;30.85;30.21
70971;BME280;58632;51.718;19.446;2023-06-22T11:46:03;99851.63;;;30.85;30.18
70971;BME280;58632;51.718;19.446;2023-06-22T11:48:29;99850.70;;;30.83;30.48
70971;BME280;58632;51.718;19.446;2023-06-22T11:50:55;99849.86;;;30.86;31.26
70971;BME280;58632;51.718;19.446;2023-06-22T11:53:21;99850.83;;;30.92;30.66
70971;BME280;58632;51.718;19.446;2023-06-22T11:55:47;99849.54;;;30.99;30.40
70971;BME280;58632;51.718;19.446;2023-06-22T11:58:13;99852.35;;;31.02;31.19
70971;BME280;58632;51.718;19.446;2023-06-22T12:00:38;99852.06;;;31.01;31.83
70971;BME280;58632;51.718;19.446;2023-06-22T12:03:04;99852.19;;;30.97;30.82
70971;BME280;58632;51.718;19.446;2023-06-22T12:05:30;99846.49;;;30.94;32.26
70971;BME280;58632;51.718;19.446;2023-06-22T12:07:55;99839.66;;;31.02;32.66
70971;BME280;58632;51.718;19.446;2023-06-22T12:10:22;99833.36;;;31.13;33.08
70971;BME280;58632;51.718;19.446;2023-06-22T12:12:48;99834.31;;;31.17;33.65
70971;BME280;58632;51.718;19.446;2023-06-22T12:15:14;99834.64;;;31.17;31.47
70971;BME280;58632;51.718;19.446;2023-06-22T12:17:40;99833.69;;;31.11;31.80
70971;BME280;58632;51.718;19.446;2023-06-22T12:20:06;99830.05;;;31.02;31.44
70971;BME280;58632;51.718;19.446;2023-06-22T12:22:32;99829.00;;;30.91;32.09
70971;BME280;58632;51.718;19.446;2023-06-22T12:24:57;99831.80;;;30.88;32.18
70971;BME280;58632;51.718;19.446;2023-06-22T12:27:26;99832.27;;;30.80;32.10
70971;BME280;58632;51.718;19.446;2023-06-22T12:29:51;99828.81;;;30.76;31.84
70971;BME280;58632;51.718;19.446;2023-06-22T12:32:17;99828.02;;;30.77;31.87
70971;BME280;58632;51.718;19.446;2023-06-22T12:34:44;99814.46;;;30.77;31.99
70971;BME280;58632;51.718;19.446;2023-06-22T12:37:10;99810.75;;;30.82;31.87
70971;BME280;58632;51.718;19.446;2023-06-22T12:39:35;99808.23;;;30.83;31.63
70971;BME280;58632;51.718;19.446;2023-06-22T12:42:01;99811.70;;;30.87;31.58
70971;BME280;58632;51.718;19.446;2023-06-22T12:44:29;99809.16;;;30.93;31.51
70971;BME280;58632;51.718;19.446;2023-06-22T12:46:55;99814.86;;;30.96;31.10
70971;BME280;58632;51.718;19.446;2023-06-22T12:49:20;99811.20;;;30.98;31.35
70971;BME280;58632;51.718;19.446;2023-06-22T12:51:45;99818.02;;;30.98;30.34
70971;BME280;58632;51.718;19.446;2023-06-22T12:54:11;99816.77;;;30.90;30.80